createdAt,value
2018-12-04T00:00:10.768Z,79.90
2018-12-04T00:06:49.562Z,79.90
2018-12-04T00:09:46.179Z,80.00
2018-12-04T00:12:39.156Z,80.00
2018-12-04T00:22:15.379Z,80.00
2018-12-04T00:25:08.501Z,80.10
2018-12-04T00:28:03.847Z,80.20
2018-12-04T00:30:58.449Z,80.10
2018-12-04T01:48:13.538Z,80.70
2018-12-04T01:51:07.193Z,80.60
2018-12-04T01:54:00.731Z,80.60
2018-12-04T01:56:53.422Z,80.60
2018-12-04T01:59:47.306Z,80.80
2018-12-04T02:02:40.230Z,80.70
2018-12-04T02:08:45.099Z,80.90
2018-12-04T02:11:41.073Z,80.90
2018-12-04T02:14:34.371Z,81.00
2018-12-04T02:17:27.588Z,81.10
2018-12-04T02:20:20.540Z,81.20
2018-12-04T02:23:18.195Z,81.20
2018-12-04T02:26:16.228Z,81.30
2018-12-04T02:29:08.752Z,81.40
2018-12-04T02:32:04.327Z,81.60
2018-12-04T02:34:59.615Z,81.70
2018-12-04T02:37:56.066Z,81.60
2018-12-04T02:40:55.703Z,81.70
2018-12-04T02:43:59.050Z,81.70
2018-12-04T02:46:58.199Z,81.80
2018-12-04T02:50:07.934Z,81.90
2018-12-04T02:56:35.701Z,82.10
2018-12-04T03:02:08.131Z,82.40
2018-12-04T03:05:18.770Z,82.60
2018-12-04T03:11:25.527Z,82.70
2018-12-04T03:14:20.274Z,83.00
2018-12-04T03:17:30.311Z,82.80
2018-12-04T03:20:46.351Z,82.80
2018-12-04T03:23:43.168Z,83.10
2018-12-04T03:26:36.386Z,83.20
2018-12-04T03:29:45.649Z,83.30
2018-12-04T03:32:40.244Z,83.10
2018-12-04T03:35:32.032Z,83.30
2018-12-04T03:38:40.027Z,83.10
2018-12-04T03:41:34.742Z,83.30
2018-12-04T03:44:28.909Z,83.30
2018-12-04T03:47:31.447Z,83.30
2018-12-04T03:50:26.865Z,83.30
2018-12-04T03:53:29.357Z,83.20
2018-12-04T03:56:31.163Z,83.20
2018-12-04T03:59:25.831Z,83.20
2018-12-04T04:02:37.882Z,83.30
2018-12-04T04:05:32.387Z,83.20
2018-12-04T04:08:26.934Z,83.20
2018-12-04T04:11:21.587Z,83.20
2018-12-04T04:14:31.652Z,83.10
2018-12-04T04:17:27.263Z,83.10
2018-12-04T04:23:31.481Z,83.20
2018-12-04T04:26:27.592Z,83.10
2018-12-04T04:29:26.928Z,83.10
2018-12-04T04:32:25.902Z,83.00
2018-12-04T04:35:19.846Z,83.10
2018-12-04T04:38:12.715Z,83.00
2018-12-04T04:41:05.545Z,83.00
2018-12-04T04:44:00.499Z,83.20
2018-12-04T04:47:09.597Z,84.90
2018-12-04T04:50:05.116Z,85.40
2018-12-04T05:09:34.232Z,84.00
2018-12-04T05:12:43.981Z,84.80
2018-12-04T05:15:41.028Z,84.80
2018-12-04T05:18:36.870Z,84.60
2018-12-04T05:28:20.013Z,85.20
2018-12-04T05:31:18.813Z,85.30
2018-12-04T05:37:33.685Z,85.50
2018-12-04T05:40:28.026Z,86.40
2018-12-04T05:43:22.543Z,86.20
2018-12-04T05:46:16.153Z,87.10
2018-12-04T05:49:10.549Z,86.60
2018-12-04T05:52:05.659Z,86.20
2018-12-04T05:55:01.469Z,87.00
2018-12-04T05:57:56.243Z,87.00
2018-12-04T06:00:49.485Z,87.00
2018-12-04T06:03:41.935Z,86.90
2018-12-04T06:06:34.298Z,86.70
2018-12-04T06:09:29.997Z,86.60
2018-12-04T06:12:23.205Z,86.70
2018-12-04T06:18:27.816Z,86.60
2018-12-04T06:21:26.900Z,86.20
2018-12-04T06:24:20.238Z,87.00
2018-12-04T06:27:18.752Z,86.90
2018-12-04T06:30:14.274Z,86.60
2018-12-04T06:33:14.997Z,86.70
2018-12-04T06:36:30.238Z,86.50
2018-12-04T06:39:26.954Z,86.50
2018-12-04T06:45:38.265Z,86.90
2018-12-04T06:52:00.408Z,86.70
2018-12-04T06:54:55.181Z,86.60
2018-12-04T06:57:57.860Z,86.60
2018-12-04T07:00:54.327Z,86.60
2018-12-04T07:03:47.534Z,86.70
2018-12-04T07:06:57.241Z,86.80
2018-12-04T07:09:49.996Z,86.90
2018-12-04T07:13:01.244Z,86.60
2018-12-04T07:15:58.037Z,86.70
2018-12-04T08:39:34.159Z,86.00
2018-12-04T08:42:29.761Z,85.30
2018-12-04T08:45:26.569Z,85.40
2018-12-04T08:48:19.474Z,85.00
2018-12-04T08:51:12.140Z,85.10
2018-12-04T08:54:03.356Z,85.20
2018-12-04T08:56:56.557Z,84.90
2018-12-04T08:59:49.567Z,85.00
2018-12-04T09:02:40.756Z,84.80
2018-12-04T09:05:37.463Z,85.20
2018-12-04T09:08:30.821Z,84.90
2018-12-04T09:11:24.105Z,84.60
2018-12-04T09:14:17.551Z,85.00
2018-12-04T09:17:15.177Z,84.80
2018-12-04T09:20:08.711Z,85.00
2018-12-04T09:23:08.732Z,84.70
2018-12-04T09:26:09.341Z,84.60
2018-12-04T09:29:01.838Z,84.70
2018-12-04T09:31:54.864Z,84.40
2018-12-04T09:34:47.946Z,84.80
2018-12-04T09:37:41.480Z,84.50
2018-12-04T09:40:35.008Z,84.50
2018-12-04T09:43:29.395Z,84.70
2018-12-04T09:46:22.629Z,85.40
2018-12-04T09:49:17.987Z,84.20
2018-12-04T09:52:12.862Z,84.70
2018-12-04T09:55:06.860Z,84.90
2018-12-04T09:57:59.686Z,84.50
2018-12-04T10:00:52.399Z,84.20
2018-12-04T10:03:44.795Z,84.10
2018-12-04T10:06:38.676Z,84.10
2018-12-04T10:09:31.472Z,84.10
2018-12-04T10:12:24.413Z,84.10
2018-12-04T10:15:19.046Z,84.10
2018-12-04T10:18:14.628Z,83.70
2018-12-04T10:21:06.941Z,83.90
2018-12-04T10:23:58.646Z,83.90
2018-12-04T10:26:59.944Z,84.00
2018-12-04T10:29:54.010Z,83.80
2018-12-04T10:32:47.387Z,84.20
2018-12-04T10:35:40.585Z,84.20
2018-12-04T10:38:33.829Z,83.90
2018-12-04T10:41:31.961Z,84.00
2018-12-04T10:44:26.297Z,84.00
2018-12-04T10:47:17.849Z,83.90
2018-12-04T10:50:11.508Z,83.90
2018-12-04T10:53:04.527Z,83.90
2018-12-04T10:55:56.379Z,83.80
2018-12-04T10:58:49.024Z,83.90
2018-12-04T11:01:57.415Z,83.80
2018-12-04T11:04:50.288Z,83.70
2018-12-04T11:07:47.188Z,83.80
2018-12-04T11:10:38.823Z,83.90
2018-12-04T11:13:31.046Z,84.00
2018-12-04T11:16:22.603Z,83.90
2018-12-04T11:19:15.838Z,83.80
2018-12-04T11:22:09.807Z,83.90
2018-12-04T11:25:01.426Z,83.90
2018-12-04T11:27:53.178Z,83.90
2018-12-04T11:30:44.950Z,83.90
2018-12-04T11:33:37.607Z,84.20
2018-12-04T11:36:36.135Z,84.30
2018-12-04T11:39:29.287Z,84.30
2018-12-04T11:42:25.610Z,84.10
2018-12-04T11:45:18.755Z,84.30
2018-12-04T11:48:10.246Z,84.70
2018-12-04T11:51:01.621Z,84.90
2018-12-04T11:53:52.816Z,85.00
2018-12-04T11:56:43.956Z,85.20
2018-12-04T11:59:35.330Z,85.20
2018-12-04T13:12:51.859Z,85.20
2018-12-04T13:15:31.883Z,86.10
2018-12-04T13:18:11.286Z,85.90
2018-12-04T13:20:49.612Z,86.00
2018-12-04T13:23:30.102Z,85.90
2018-12-04T13:26:14.601Z,85.80
2018-12-04T13:29:03.208Z,86.00
2018-12-04T13:31:41.532Z,86.00
2018-12-04T13:34:20.412Z,85.90
2018-12-04T13:37:07.478Z,86.20
2018-12-04T13:39:47.051Z,86.20
2018-12-04T13:42:25.205Z,86.30
2018-12-04T13:45:03.730Z,86.20
2018-12-04T13:47:42.132Z,86.30
2018-12-04T13:50:20.797Z,86.30
2018-12-04T13:52:59.221Z,86.30
2018-12-04T13:55:38.179Z,86.30
2018-12-04T13:58:16.663Z,86.30
2018-12-04T14:00:55.452Z,86.40
2018-12-04T14:03:34.743Z,86.30
2018-12-04T14:06:14.514Z,86.40
2018-12-04T14:08:53.348Z,86.30
2018-12-04T14:11:31.980Z,86.40
2018-12-04T14:14:10.772Z,86.40
2018-12-04T14:16:50.200Z,86.40
2018-12-04T14:19:28.678Z,86.40
2018-12-04T14:22:07.407Z,86.40
2018-12-04T14:24:45.759Z,86.40
2018-12-04T14:27:25.347Z,86.50
2018-12-04T14:30:03.905Z,86.40
2018-12-04T14:32:42.611Z,87.20
2018-12-04T14:35:20.989Z,86.90
2018-12-04T14:37:59.715Z,86.30
2018-12-04T14:40:38.309Z,86.40
2018-12-04T14:43:16.876Z,86.30
2018-12-04T14:45:55.155Z,86.40
2018-12-04T14:48:33.686Z,86.40
2018-12-04T14:54:26.493Z,86.40
2018-12-04T14:57:04.648Z,86.30
2018-12-04T14:59:43.076Z,86.40
2018-12-04T15:02:22.897Z,86.40
2018-12-04T15:05:08.757Z,86.50
2018-12-04T15:07:57.888Z,86.40
2018-12-04T15:10:39.289Z,86.40
2018-12-04T15:13:17.612Z,86.40
2018-12-04T15:15:56.465Z,86.10
2018-12-04T15:18:34.719Z,86.40
2018-12-04T15:21:13.764Z,86.30
2018-12-04T15:23:51.573Z,86.30
2018-12-04T15:26:29.989Z,86.20
2018-12-04T15:29:07.849Z,86.20
2018-12-04T15:31:45.967Z,86.30
2018-12-04T15:34:24.664Z,86.30
2018-12-04T15:37:03.419Z,86.40
2018-12-04T15:39:41.792Z,86.20
2018-12-04T15:42:20.535Z,86.10
2018-12-04T15:44:59.032Z,86.10
2018-12-04T15:47:38.110Z,86.10
2018-12-04T15:50:16.579Z,86.10
2018-12-04T15:52:55.321Z,86.10
2018-12-04T15:55:33.862Z,86.10
2018-12-04T15:58:12.723Z,86.00
2018-12-04T16:00:51.127Z,86.10
2018-12-04T16:03:30.519Z,86.10
2018-12-04T16:06:08.911Z,86.00
2018-12-04T16:08:47.665Z,86.10
2018-12-04T16:11:25.994Z,86.00
2018-12-04T16:14:05.006Z,85.90
2018-12-04T16:16:43.389Z,86.00
2018-12-04T16:19:21.761Z,86.00
2018-12-04T16:22:00.072Z,86.30
2018-12-04T16:24:39.216Z,86.00
2018-12-04T16:27:17.712Z,85.90
2018-12-04T16:29:56.588Z,85.90
2018-12-04T16:32:34.878Z,86.00
2018-12-04T16:35:14.771Z,85.90
2018-12-04T16:37:55.359Z,85.90
2018-12-04T16:40:34.377Z,86.00
2018-12-04T16:43:12.970Z,86.00
2018-12-04T16:45:52.659Z,86.00
2018-12-04T16:48:31.100Z,86.00
2018-12-04T16:51:10.840Z,85.90
2018-12-04T16:53:51.298Z,85.90
2018-12-04T16:56:29.973Z,86.00
2018-12-04T16:59:15.763Z,85.80
2018-12-04T17:02:06.524Z,85.80
2018-12-04T17:04:48.299Z,85.80
2018-12-04T17:07:27.467Z,85.80
2018-12-04T17:10:22.204Z,85.80
2018-12-04T17:13:09.604Z,85.80
2018-12-04T17:15:59.080Z,85.90
2018-12-04T17:21:40.274Z,85.80
2018-12-04T17:24:18.988Z,85.90
2018-12-04T17:29:45.558Z,86.00
2018-12-04T17:32:27.507Z,86.00
2018-12-04T17:35:06.276Z,86.00
2018-12-04T17:37:44.571Z,86.10
2018-12-04T17:40:23.540Z,86.00
2018-12-04T17:43:02.094Z,86.10
2018-12-04T17:45:41.903Z,86.00
2018-12-04T17:48:24.272Z,86.00
2018-12-04T17:51:07.434Z,86.00
2018-12-04T17:53:46.828Z,86.00
2018-12-04T17:56:28.790Z,86.00
2018-12-04T17:59:07.124Z,85.90
2018-12-04T18:01:49.466Z,86.00
2018-12-04T18:04:28.678Z,86.00
2018-12-04T18:07:09.447Z,86.00
2018-12-04T18:09:51.230Z,86.00
2018-12-04T18:12:33.262Z,86.20
2018-12-04T18:15:18.213Z,86.00
2018-12-04T18:18:02.731Z,86.10
2018-12-04T18:20:40.820Z,86.20
2018-12-04T18:23:20.991Z,86.20
2018-12-04T18:25:59.981Z,86.40
2018-12-04T18:28:38.590Z,86.60
2018-12-04T18:34:04.350Z,86.80
2018-12-04T18:36:46.697Z,86.60
2018-12-04T18:39:31.740Z,86.70
2018-12-04T18:42:10.589Z,86.90
2018-12-04T18:44:50.888Z,86.70
2018-12-04T18:47:28.697Z,86.90
2018-12-04T18:50:07.901Z,86.80
2018-12-04T18:52:48.839Z,86.90
2018-12-04T18:55:28.499Z,87.10
2018-12-04T18:58:10.435Z,86.90
2018-12-04T19:00:53.019Z,86.80
2018-12-04T19:03:31.435Z,86.90
2018-12-04T19:06:11.783Z,86.90
2018-12-04T19:08:53.863Z,86.90
2018-12-04T19:11:33.641Z,87.00
2018-12-04T19:14:11.750Z,87.00
2018-12-04T19:16:51.476Z,86.90
2018-12-04T19:19:30.456Z,86.80
2018-12-04T19:22:09.286Z,86.90
2018-12-04T19:24:47.888Z,87.10
2018-12-04T19:27:28.447Z,87.00
2018-12-04T19:30:08.797Z,87.10
2018-12-04T19:32:48.490Z,87.00
2018-12-04T19:35:27.083Z,86.90
2018-12-04T19:38:07.424Z,86.80
2018-12-04T19:40:46.508Z,86.90
2018-12-04T19:43:26.269Z,86.70
2018-12-04T19:46:05.325Z,86.70
2018-12-04T19:48:45.843Z,86.70
2018-12-04T19:51:25.075Z,86.80
2018-12-04T19:54:03.837Z,86.70
2018-12-04T19:56:42.966Z,86.80
2018-12-04T19:59:22.693Z,86.70
2018-12-04T20:02:00.852Z,86.80
2018-12-04T20:04:41.022Z,86.80
2018-12-04T20:07:19.337Z,86.70
2018-12-04T20:09:59.163Z,86.80
2018-12-04T20:12:38.939Z,87.00
2018-12-04T20:15:18.566Z,87.00
2018-12-04T20:17:56.835Z,87.00
2018-12-04T20:20:35.288Z,86.90
2018-12-04T20:23:14.330Z,86.80
2018-12-04T20:25:53.961Z,86.70
2018-12-04T20:28:32.214Z,86.70
2018-12-04T20:31:10.739Z,86.60
2018-12-04T20:33:49.395Z,86.50
2018-12-04T20:36:29.031Z,86.60
2018-12-04T20:39:08.038Z,86.50
2018-12-04T20:41:51.285Z,86.50
2018-12-04T20:44:30.948Z,86.50
2018-12-04T20:47:10.783Z,86.40
2018-12-04T20:49:49.851Z,86.40
2018-12-04T20:52:29.210Z,87.20
2018-12-04T20:55:09.527Z,86.30
2018-12-04T20:57:49.234Z,86.40
2018-12-04T21:00:28.580Z,85.60
2018-12-04T21:03:08.125Z,86.40
2018-12-04T21:05:47.448Z,86.40
2018-12-04T21:08:27.109Z,86.40
2018-12-04T21:11:06.375Z,86.40
2018-12-04T21:13:44.695Z,86.30
2018-12-04T21:16:23.763Z,86.30
2018-12-04T21:19:03.705Z,86.30
2018-12-04T21:21:42.042Z,86.20
2018-12-04T21:24:20.538Z,86.30
2018-12-04T21:26:59.646Z,86.30
2018-12-04T21:29:43.133Z,86.30
2018-12-04T21:32:26.567Z,86.30
2018-12-04T21:35:09.924Z,86.20
2018-12-04T21:37:53.328Z,86.20
2018-12-04T21:40:36.878Z,86.10
2018-12-04T21:43:19.114Z,86.10
2018-12-04T21:46:05.801Z,86.10
2018-12-04T21:48:46.134Z,86.10
2018-12-04T21:51:24.676Z,86.10
2018-12-04T21:54:03.825Z,86.10
2018-12-04T21:56:44.406Z,86.10
2018-12-04T21:59:23.698Z,86.00
2018-12-04T22:02:04.074Z,85.90
2018-12-04T22:04:43.137Z,86.00
2018-12-04T22:07:22.836Z,86.00
2018-12-04T22:10:01.101Z,85.90
2018-12-04T22:12:40.479Z,85.90
2018-12-04T22:15:19.690Z,85.90
2018-12-04T22:17:58.577Z,85.80
2018-12-04T22:20:37.875Z,85.70
2018-12-04T22:23:17.441Z,85.70
2018-12-04T22:25:55.595Z,85.80
2018-12-04T22:28:35.059Z,85.90
2018-12-04T22:31:14.382Z,85.70
2018-12-04T22:33:53.912Z,85.70
2018-12-04T22:36:34.064Z,85.70
2018-12-04T22:39:13.395Z,85.70
2018-12-04T22:41:52.504Z,85.60
2018-12-04T22:44:32.200Z,85.70
2018-12-04T22:47:11.306Z,85.80
2018-12-04T22:49:58.918Z,85.70
2018-12-04T22:52:36.935Z,85.60
2018-12-04T22:55:16.372Z,85.70
2018-12-04T22:57:56.543Z,85.60
2018-12-04T23:00:41.717Z,85.60
2018-12-04T23:03:21.785Z,85.60
2018-12-04T23:06:01.388Z,85.60
2018-12-04T23:08:43.045Z,85.60
2018-12-04T23:11:21.851Z,85.50
2018-12-04T23:14:00.777Z,85.60
2018-12-04T23:16:39.183Z,85.60
2018-12-04T23:19:18.218Z,85.50
2018-12-04T23:21:58.271Z,86.00
2018-12-04T23:24:37.403Z,85.60
2018-12-04T23:27:16.463Z,85.50
2018-12-04T23:29:56.856Z,85.50
2018-12-04T23:32:36.412Z,85.60
2018-12-04T23:35:14.543Z,85.50
2018-12-04T23:37:53.902Z,85.50
2018-12-04T23:40:31.905Z,85.50
2018-12-04T23:43:11.148Z,85.50
2018-12-04T23:45:49.248Z,85.40
2018-12-04T23:48:27.756Z,85.40
2018-12-04T23:51:05.874Z,85.30
2018-12-04T23:53:46.808Z,85.30
2018-12-04T23:56:24.920Z,85.30
2018-12-04T23:59:04.399Z,85.30
